createdAt,value
2017-09-15T00:00:13.267Z,995.36
2017-09-15T00:01:13.285Z,995.33
2017-09-15T00:02:13.303Z,995.3
2017-09-15T00:03:13.407Z,995.39
2017-09-15T00:04:13.408Z,995.35
2017-09-15T00:05:13.406Z,995.35
2017-09-15T00:06:13.376Z,995.45
2017-09-15T00:07:13.394Z,995.38
2017-09-15T00:08:13.421Z,995.48
2017-09-15T00:09:13.531Z,995.42
2017-09-15T00:10:13.449Z,995.48
2017-09-15T00:11:13.468Z,995.46
2017-09-15T00:12:13.486Z,995.54
2017-09-15T00:13:13.506Z,995.5
2017-09-15T00:14:13.521Z,995.47
2017-09-15T00:15:13.539Z,995.55
2017-09-15T00:16:13.558Z,995.63
2017-09-15T00:17:13.575Z,995.54
2017-09-15T00:18:13.594Z,995.6
2017-09-15T00:19:13.611Z,995.58
2017-09-15T00:20:13.631Z,995.63
2017-09-15T00:21:13.647Z,995.58
2017-09-15T00:22:13.665Z,995.68
2017-09-15T00:23:13.684Z,995.62
2017-09-15T00:24:13.703Z,995.65
2017-09-15T00:25:13.720Z,995.7
2017-09-15T00:26:13.738Z,995.78
2017-09-15T00:27:13.756Z,995.8
2017-09-15T00:28:13.773Z,995.8
2017-09-15T00:29:13.792Z,995.79
2017-09-15T00:30:13.810Z,995.82
2017-09-15T00:31:13.829Z,995.83
2017-09-15T00:32:13.847Z,995.79
2017-09-15T00:33:13.867Z,995.83
2017-09-15T00:34:13.882Z,995.81
2017-09-15T00:35:13.900Z,995.89
2017-09-15T00:36:13.918Z,995.92
2017-09-15T00:37:13.937Z,995.97
2017-09-15T00:38:13.957Z,995.97
2017-09-15T00:39:13.972Z,995.97
2017-09-15T00:40:13.991Z,995.99
2017-09-15T00:41:14.009Z,995.99
2017-09-15T00:42:14.028Z,996.05
2017-09-15T00:43:14.046Z,996.04
2017-09-15T00:44:14.064Z,996.08
2017-09-15T00:45:14.082Z,996.04
2017-09-15T00:46:14.099Z,996.08
2017-09-15T00:47:14.119Z,996.14
2017-09-15T00:48:14.136Z,996.16
2017-09-15T00:49:14.154Z,996.2
2017-09-15T00:50:14.171Z,996.16
2017-09-15T00:51:14.190Z,996.16
2017-09-15T00:52:14.208Z,996.21
2017-09-15T00:53:14.228Z,996.23
2017-09-15T00:54:14.244Z,996.21
2017-09-15T00:55:14.262Z,996.34
2017-09-15T00:56:14.280Z,996.32
2017-09-15T00:57:14.298Z,996.36
2017-09-15T00:58:14.316Z,996.34
2017-09-15T00:59:14.335Z,996.38
2017-09-15T01:00:14.353Z,996.39
2017-09-15T01:01:14.371Z,996.4
2017-09-15T01:02:14.391Z,996.34
2017-09-15T01:03:14.458Z,996.43
2017-09-15T01:04:14.425Z,996.44
2017-09-15T01:05:14.443Z,996.47
2017-09-15T01:06:14.461Z,996.49
2017-09-15T01:07:14.480Z,996.48
2017-09-15T01:08:14.497Z,996.51
2017-09-15T01:09:14.530Z,996.53
2017-09-15T01:10:14.591Z,996.53
2017-09-15T01:11:14.554Z,996.54
2017-09-15T01:12:14.569Z,996.57
2017-09-15T01:13:14.587Z,996.58
2017-09-15T01:14:14.607Z,996.55
2017-09-15T01:15:14.624Z,996.66
2017-09-15T01:16:14.643Z,996.63
2017-09-15T01:17:14.660Z,996.67
2017-09-15T01:18:14.678Z,996.67
2017-09-15T01:19:14.696Z,996.73
2017-09-15T01:20:14.714Z,996.77
2017-09-15T01:21:14.735Z,996.76
2017-09-15T01:22:14.750Z,996.85
2017-09-15T01:23:14.837Z,996.87
2017-09-15T01:24:14.788Z,996.93
2017-09-15T01:25:14.806Z,996.92
2017-09-15T01:26:14.824Z,996.89
2017-09-15T01:27:14.840Z,996.93
2017-09-15T01:28:14.859Z,996.98
2017-09-15T01:29:14.879Z,996.96
2017-09-15T01:30:14.895Z,996.97
2017-09-15T01:31:14.912Z,997
2017-09-15T01:32:14.941Z,997.01
2017-09-15T01:33:14.949Z,997.02
2017-09-15T01:34:14.967Z,997.06
2017-09-15T01:35:14.986Z,997.02
2017-09-15T01:36:15.007Z,996.98
2017-09-15T01:37:15.022Z,997.09
2017-09-15T01:38:15.040Z,997.04
2017-09-15T01:39:15.059Z,997.08
2017-09-15T01:40:15.077Z,997.13
2017-09-15T01:41:15.095Z,997.13
2017-09-15T01:42:15.113Z,997.17
2017-09-15T01:43:15.131Z,997.19
2017-09-15T01:44:15.149Z,997.23
2017-09-15T01:45:15.167Z,997.23
2017-09-15T01:46:15.188Z,997.16
2017-09-15T01:47:15.203Z,997.22
2017-09-15T01:48:15.221Z,997.24
2017-09-15T01:49:15.239Z,997.23
2017-09-15T01:50:15.258Z,997.24
2017-09-15T01:51:15.278Z,997.24
2017-09-15T01:52:15.294Z,997.22
2017-09-15T01:53:15.312Z,997.23
2017-09-15T01:54:15.330Z,997.32
2017-09-15T01:55:15.351Z,997.31
2017-09-15T01:56:15.365Z,997.35
2017-09-15T01:57:15.400Z,997.35
2017-09-15T01:58:15.404Z,997.33
2017-09-15T01:59:15.420Z,997.34
2017-09-15T02:00:15.438Z,997.38
2017-09-15T02:01:15.458Z,997.4
2017-09-15T02:02:15.475Z,997.43
2017-09-15T02:03:15.492Z,997.45
2017-09-15T02:04:15.511Z,997.5
2017-09-15T02:05:15.600Z,997.48
2017-09-15T02:06:15.570Z,997.49
2017-09-15T02:07:15.566Z,997.53
2017-09-15T02:08:15.583Z,997.54
2017-09-15T02:09:15.601Z,997.54
2017-09-15T02:10:15.619Z,997.52
2017-09-15T02:11:15.638Z,997.57
2017-09-15T02:12:15.655Z,997.61
2017-09-15T02:13:15.678Z,997.64
2017-09-15T02:14:15.691Z,997.62
2017-09-15T02:15:15.711Z,997.6
2017-09-15T02:16:15.730Z,997.58
2017-09-15T02:17:15.747Z,997.63
2017-09-15T02:18:15.764Z,997.59
2017-09-15T02:19:15.781Z,997.6
2017-09-15T02:20:15.800Z,997.62
2017-09-15T02:21:15.818Z,997.63
2017-09-15T02:22:15.838Z,997.64
2017-09-15T02:23:15.854Z,997.67
2017-09-15T02:24:15.872Z,997.69
2017-09-15T02:25:15.889Z,997.69
2017-09-15T02:26:15.908Z,997.69
2017-09-15T02:27:15.926Z,997.68
2017-09-15T02:28:15.945Z,997.74
2017-09-15T02:29:15.964Z,997.69
2017-09-15T02:30:15.982Z,997.71
2017-09-15T02:31:15.998Z,997.68
2017-09-15T02:32:16.015Z,997.71
2017-09-15T02:33:16.033Z,997.65
2017-09-15T02:34:16.052Z,997.7
2017-09-15T02:35:16.071Z,997.66
2017-09-15T02:36:16.091Z,997.63
2017-09-15T02:37:16.108Z,997.7
2017-09-15T02:38:16.125Z,997.69
2017-09-15T02:39:16.143Z,997.69
2017-09-15T02:40:16.171Z,997.67
2017-09-15T02:41:16.178Z,997.67
2017-09-15T02:42:16.200Z,997.7
2017-09-15T02:43:16.217Z,997.69
2017-09-15T02:44:16.232Z,997.69
2017-09-15T02:45:16.251Z,997.7
2017-09-15T02:46:16.269Z,997.74
2017-09-15T02:47:16.286Z,997.77
2017-09-15T02:48:16.306Z,997.79
2017-09-15T02:49:16.338Z,997.83
2017-09-15T02:50:16.341Z,997.86
2017-09-15T02:51:16.359Z,997.88
2017-09-15T02:52:16.377Z,997.98
2017-09-15T02:53:16.399Z,997.98
2017-09-15T02:54:16.412Z,998.02
2017-09-15T02:55:16.680Z,998.04
2017-09-15T02:56:16.451Z,998.05
2017-09-15T02:57:16.468Z,998.11
2017-09-15T02:58:16.485Z,998.04
2017-09-15T02:59:16.503Z,998.12
2017-09-15T03:00:16.521Z,998.15
2017-09-15T03:01:16.539Z,998.11
2017-09-15T03:02:16.558Z,998.16
2017-09-15T03:03:16.577Z,998.2
2017-09-15T03:04:16.593Z,998.23
2017-09-15T03:05:16.614Z,998.26
2017-09-15T03:06:16.632Z,998.26
2017-09-15T03:07:16.649Z,998.32
2017-09-15T03:08:16.667Z,998.33
2017-09-15T03:09:16.685Z,998.34
2017-09-15T03:10:16.701Z,998.35
2017-09-15T03:11:16.720Z,998.37
2017-09-15T03:12:16.738Z,998.37
2017-09-15T03:13:16.756Z,998.41
2017-09-15T03:14:16.776Z,998.39
2017-09-15T03:15:16.793Z,998.43
2017-09-15T03:16:16.810Z,998.4
2017-09-15T03:17:16.828Z,998.44
2017-09-15T03:18:16.847Z,998.45
2017-09-15T03:19:16.865Z,998.47
2017-09-15T03:20:16.884Z,998.47
2017-09-15T03:21:16.901Z,998.48
2017-09-15T03:22:16.919Z,998.49
2017-09-15T03:23:16.940Z,998.55
2017-09-15T03:24:16.955Z,998.51
2017-09-15T03:25:16.973Z,998.52
2017-09-15T03:26:17.598Z,998.58
2017-09-15T03:27:17.008Z,998.58
2017-09-15T03:28:17.132Z,998.58
2017-09-15T03:29:17.132Z,998.57
2017-09-15T03:30:17.065Z,998.62
2017-09-15T03:31:17.081Z,998.57
2017-09-15T03:32:17.101Z,998.63
2017-09-15T03:33:17.118Z,998.62
2017-09-15T03:34:17.134Z,998.59
2017-09-15T03:35:17.153Z,998.63
2017-09-15T03:36:17.172Z,998.63
2017-09-15T03:37:17.190Z,998.65
2017-09-15T03:38:17.280Z,998.59
2017-09-15T03:39:17.226Z,998.65
2017-09-15T03:40:17.245Z,998.64
2017-09-15T03:41:17.264Z,998.64
2017-09-15T03:42:17.280Z,998.66
2017-09-15T03:43:17.298Z,998.64
2017-09-15T03:44:17.317Z,998.7
2017-09-15T03:45:17.333Z,998.7
2017-09-15T03:46:17.412Z,998.73
2017-09-15T03:47:17.370Z,998.68
2017-09-15T03:48:17.388Z,998.74
2017-09-15T03:49:17.406Z,998.74
2017-09-15T03:50:17.424Z,998.73
2017-09-15T03:51:17.442Z,998.76
2017-09-15T03:52:17.460Z,998.72
2017-09-15T03:53:17.479Z,998.74
2017-09-15T03:54:17.497Z,998.76
2017-09-15T03:55:17.516Z,998.79
2017-09-15T03:56:17.533Z,998.73
2017-09-15T03:57:17.551Z,998.79
2017-09-15T03:58:17.573Z,998.81
2017-09-15T03:59:17.587Z,998.78
2017-09-15T04:00:17.604Z,998.77
2017-09-15T04:01:17.623Z,998.78
2017-09-15T04:02:17.669Z,998.77
2017-09-15T04:03:17.659Z,998.79
2017-09-15T04:04:17.677Z,998.81
2017-09-15T04:05:17.695Z,998.84
2017-09-15T04:06:17.713Z,998.82
2017-09-15T04:07:17.730Z,998.82
2017-09-15T04:08:17.748Z,998.86
2017-09-15T04:09:17.767Z,998.9
2017-09-15T04:10:17.786Z,998.9
2017-09-15T04:11:17.802Z,998.93
2017-09-15T04:12:17.823Z,998.96
2017-09-15T04:13:17.839Z,998.93
2017-09-15T04:14:17.866Z,998.95
2017-09-15T04:15:17.874Z,998.94
2017-09-15T04:16:17.895Z,998.96
2017-09-15T04:17:17.911Z,998.91
2017-09-15T04:18:17.929Z,998.96
2017-09-15T04:19:17.947Z,998.98
2017-09-15T04:20:17.966Z,998.97
2017-09-15T04:21:17.998Z,998.96
2017-09-15T04:22:18.000Z,998.98
2017-09-15T04:23:18.018Z,998.98
2017-09-15T04:24:18.039Z,998.95
2017-09-15T04:25:18.056Z,999
2017-09-15T04:26:18.072Z,999.02
2017-09-15T04:27:18.091Z,998.99
2017-09-15T04:28:18.110Z,999.03
2017-09-15T04:29:18.402Z,999.07
2017-09-15T04:30:18.259Z,999.13
2017-09-15T04:31:18.258Z,999.12
2017-09-15T04:32:18.254Z,999.12
2017-09-15T04:33:18.252Z,999.12
2017-09-15T04:34:18.218Z,999.15
2017-09-15T04:35:18.235Z,999.15
2017-09-15T04:36:18.253Z,999.21
2017-09-15T04:37:18.270Z,999.21
2017-09-15T04:38:18.289Z,999.22
2017-09-15T04:39:18.307Z,999.22
2017-09-15T04:40:18.324Z,999.2
2017-09-15T04:41:18.342Z,999.22
2017-09-15T04:42:18.361Z,999.2
2017-09-15T04:43:18.379Z,999.28
2017-09-15T04:44:18.396Z,999.28
2017-09-15T04:45:18.415Z,999.3
2017-09-15T04:46:18.434Z,999.31
2017-09-15T04:47:18.451Z,999.33
2017-09-15T04:48:18.469Z,999.37
2017-09-15T04:49:18.492Z,999.39
2017-09-15T04:50:18.506Z,999.45
2017-09-15T04:51:18.523Z,999.42
2017-09-15T04:52:18.542Z,999.42
2017-09-15T04:53:18.559Z,999.43
2017-09-15T04:54:18.578Z,999.44
2017-09-15T04:55:18.597Z,999.53
2017-09-15T04:56:18.613Z,999.5
2017-09-15T04:57:18.631Z,999.49
2017-09-15T04:58:18.649Z,999.54
2017-09-15T04:59:18.667Z,999.52
2017-09-15T05:00:18.686Z,999.56
2017-09-15T05:01:18.712Z,999.6
2017-09-15T05:02:18.720Z,999.6
2017-09-15T05:03:18.739Z,999.65
2017-09-15T05:04:18.758Z,999.64
2017-09-15T05:05:18.775Z,999.7
2017-09-15T05:06:18.791Z,999.68
2017-09-15T05:07:18.811Z,999.67
2017-09-15T05:08:18.828Z,999.7
2017-09-15T05:09:18.846Z,999.68
2017-09-15T05:10:18.866Z,999.74
2017-09-15T05:11:18.882Z,999.75
2017-09-15T05:12:18.903Z,999.72
2017-09-15T05:13:18.918Z,999.77
2017-09-15T05:14:18.936Z,999.76
2017-09-15T05:15:18.954Z,999.78
2017-09-15T05:16:18.972Z,999.8
2017-09-15T05:17:19.050Z,999.8
2017-09-15T05:18:19.039Z,999.8
2017-09-15T05:19:19.039Z,999.81
2017-09-15T05:20:19.157Z,999.82
2017-09-15T05:21:19.062Z,999.82
2017-09-15T05:22:19.080Z,999.83
2017-09-15T05:23:19.101Z,999.8
2017-09-15T05:24:19.115Z,999.81
2017-09-15T05:25:19.134Z,999.84
2017-09-15T05:26:19.151Z,999.9
2017-09-15T05:27:19.170Z,999.9
2017-09-15T05:28:19.187Z,999.92
2017-09-15T05:29:19.205Z,999.88
2017-09-15T05:30:19.224Z,999.86
2017-09-15T05:31:19.240Z,999.9
2017-09-15T05:32:19.258Z,999.9
2017-09-15T05:33:19.277Z,999.94
2017-09-15T05:34:19.296Z,999.98
2017-09-15T05:35:19.312Z,999.98
2017-09-15T05:36:19.330Z,999.94
2017-09-15T05:37:19.349Z,999.94
2017-09-15T05:38:19.367Z,999.94
2017-09-15T05:39:19.387Z,999.92
2017-09-15T05:40:19.403Z,999.97
2017-09-15T05:41:19.421Z,1000.01
2017-09-15T05:42:19.438Z,1000.02
2017-09-15T05:43:19.456Z,1000.03
2017-09-15T05:44:19.483Z,1000.02
2017-09-15T05:45:19.492Z,999.99
2017-09-15T05:46:19.509Z,1000.05
2017-09-15T05:47:19.529Z,1000.07
2017-09-15T05:48:19.547Z,1000.06
2017-09-15T05:49:19.564Z,1000.04
2017-09-15T05:50:19.590Z,1000.02
2017-09-15T05:51:19.600Z,1000.08
2017-09-15T05:52:19.617Z,1000.12
2017-09-15T05:53:19.636Z,1000.11
2017-09-15T05:54:19.653Z,1000.11
2017-09-15T05:55:19.673Z,1000.13
2017-09-15T05:56:19.690Z,1000.13
2017-09-15T05:57:19.707Z,1000.13
2017-09-15T05:58:19.762Z,1000.14
2017-09-15T05:59:19.744Z,1000.14
2017-09-15T06:00:19.762Z,1000.14
2017-09-15T06:01:19.781Z,1000.16
2017-09-15T06:02:19.797Z,1000.17
2017-09-15T06:03:19.821Z,1000.19
2017-09-15T06:04:19.832Z,1000.23
2017-09-15T06:05:19.851Z,1000.24
2017-09-15T06:06:19.871Z,1000.26
2017-09-15T06:07:19.887Z,1000.27
2017-09-15T06:08:19.905Z,1000.32
2017-09-15T06:09:19.925Z,1000.3
2017-09-15T06:10:19.943Z,1000.29
2017-09-15T06:11:19.965Z,1000.29
2017-09-15T06:12:19.977Z,1000.27
2017-09-15T06:13:19.995Z,1000.31
2017-09-15T06:14:20.013Z,1000.32
2017-09-15T06:15:20.031Z,1000.35
2017-09-15T06:16:20.049Z,1000.35
2017-09-15T06:17:20.067Z,1000.33
2017-09-15T06:18:20.086Z,1000.35
2017-09-15T06:19:20.103Z,1000.39
2017-09-15T06:20:20.123Z,1000.4
2017-09-15T06:21:20.139Z,1000.42
2017-09-15T06:22:20.158Z,1000.44
2017-09-15T06:23:20.187Z,1000.39
2017-09-15T06:24:20.195Z,1000.47
2017-09-15T06:25:20.215Z,1000.39
2017-09-15T06:26:20.242Z,1000.43
2017-09-15T06:27:20.249Z,1000.44
2017-09-15T06:28:20.267Z,1000.44
2017-09-15T06:29:20.287Z,1000.48
2017-09-15T06:30:20.303Z,1000.48
2017-09-15T06:31:20.321Z,1000.5
2017-09-15T06:32:20.339Z,1000.52
2017-09-15T06:33:20.357Z,1000.56
2017-09-15T06:34:20.377Z,1000.55
2017-09-15T06:35:20.394Z,1000.57
2017-09-15T06:36:20.413Z,1000.65
2017-09-15T06:37:20.429Z,1000.67
2017-09-15T06:38:20.448Z,1000.63
2017-09-15T06:39:20.475Z,1000.65
2017-09-15T06:40:20.485Z,1000.69
2017-09-15T06:41:20.503Z,1000.67
2017-09-15T06:42:20.520Z,1000.7
2017-09-15T06:43:20.539Z,1000.72
2017-09-15T06:44:20.556Z,1000.69
2017-09-15T06:45:20.575Z,1000.69
2017-09-15T06:46:20.594Z,1000.7
2017-09-15T06:47:20.612Z,1000.72
2017-09-15T06:48:20.721Z,1000.73
2017-09-15T06:49:20.650Z,1000.76
2017-09-15T06:50:20.668Z,1000.76
2017-09-15T06:51:20.687Z,1000.73
2017-09-15T06:52:20.701Z,1000.73
2017-09-15T06:53:20.737Z,1000.77
2017-09-15T06:54:20.740Z,1000.76
2017-09-15T06:55:20.767Z,1000.8
2017-09-15T06:56:20.775Z,1000.79
2017-09-15T06:57:20.794Z,1000.78
2017-09-15T06:58:20.846Z,1000.81
2017-09-15T06:59:20.830Z,1000.86
2017-09-15T07:00:20.850Z,1000.85
2017-09-15T07:01:20.867Z,1000.86
2017-09-15T07:02:20.887Z,1000.89
2017-09-15T07:03:20.904Z,1000.91
2017-09-15T07:04:20.921Z,1000.9
2017-09-15T07:05:20.939Z,1000.91
2017-09-15T07:06:20.959Z,1000.96
2017-09-15T07:07:20.977Z,1000.91
2017-09-15T07:08:20.996Z,1000.94
2017-09-15T07:09:21.014Z,1000.99
2017-09-15T07:10:21.035Z,1000.99
2017-09-15T07:11:21.054Z,1001.03
2017-09-15T07:12:21.076Z,1001.02
2017-09-15T07:13:21.091Z,1001.09
2017-09-15T07:14:21.104Z,1001.09
2017-09-15T07:15:21.124Z,1001.06
2017-09-15T07:16:21.142Z,1001.1
2017-09-15T07:17:21.159Z,1001.07
2017-09-15T07:18:21.178Z,1001.1
2017-09-15T07:19:21.197Z,1001.16
2017-09-15T07:20:21.215Z,1001.17
2017-09-15T07:21:21.233Z,1001.19
2017-09-15T07:22:21.254Z,1001.17
2017-09-15T07:23:21.272Z,1001.16
2017-09-15T07:24:21.289Z,1001.19
2017-09-15T07:25:21.308Z,1001.22
2017-09-15T07:26:21.325Z,1001.26
2017-09-15T07:27:21.344Z,1001.24
2017-09-15T07:28:21.363Z,1001.25
2017-09-15T07:29:21.382Z,1001.19
2017-09-15T07:30:21.399Z,1001.21
2017-09-15T07:31:21.418Z,1001.2
2017-09-15T07:32:21.437Z,1001.28
2017-09-15T07:33:21.454Z,1001.28
2017-09-15T07:34:21.473Z,1001.28
2017-09-15T07:35:21.491Z,1001.29
2017-09-15T07:36:21.510Z,1001.26
2017-09-15T07:37:21.528Z,1001.31
2017-09-15T07:38:21.548Z,1001.27
2017-09-15T07:39:21.568Z,1001.33
2017-09-15T07:40:21.584Z,1001.29
2017-09-15T07:41:21.604Z,1001.31
2017-09-15T07:42:21.621Z,1001.3
2017-09-15T07:43:21.639Z,1001.33
2017-09-15T07:44:21.658Z,1001.29
2017-09-15T07:45:21.677Z,1001.24
2017-09-15T07:46:21.698Z,1001.3
2017-09-15T07:47:21.713Z,1001.33
2017-09-15T07:48:21.732Z,1001.31
2017-09-15T07:49:21.751Z,1001.27
2017-09-15T07:50:21.770Z,1001.27
2017-09-15T07:51:21.789Z,1001.26
2017-09-15T07:52:21.807Z,1001.23
2017-09-15T07:53:21.832Z,1001.21
2017-09-15T07:54:21.843Z,1001.26
2017-09-15T07:55:21.862Z,1001.25
2017-09-15T07:56:21.881Z,1001.28
2017-09-15T07:57:21.900Z,1001.31
2017-09-15T07:58:21.919Z,1001.32
2017-09-15T07:59:22.046Z,1001.33
2017-09-15T08:00:22.045Z,1001.34
2017-09-15T08:01:22.043Z,1001.32
2017-09-15T08:02:21.994Z,1001.3
2017-09-15T08:03:22.013Z,1001.28
2017-09-15T08:04:22.031Z,1001.28
2017-09-15T08:05:22.050Z,1001.27
2017-09-15T08:06:22.069Z,1001.25
2017-09-15T08:07:22.088Z,1001.29
2017-09-15T08:08:22.106Z,1001.29
2017-09-15T08:09:22.125Z,1001.3
2017-09-15T08:10:22.145Z,1001.32
2017-09-15T08:11:22.164Z,1001.3
2017-09-15T08:12:22.233Z,1001.32
2017-09-15T08:13:22.201Z,1001.29
2017-09-15T08:14:22.241Z,1001.26
2017-09-15T08:15:22.241Z,1001.3
2017-09-15T08:16:22.257Z,1001.3
2017-09-15T08:17:22.277Z,1001.33
2017-09-15T08:18:22.298Z,1001.32
2017-09-15T08:19:22.314Z,1001.33
2017-09-15T08:20:22.338Z,1001.36
2017-09-15T08:21:22.353Z,1001.35
2017-09-15T08:22:22.422Z,1001.36
2017-09-15T08:23:22.390Z,1001.38
2017-09-15T08:24:22.410Z,1001.37
2017-09-15T08:25:22.429Z,1001.37
2017-09-15T08:26:22.449Z,1001.37
2017-09-15T08:27:22.467Z,1001.34
2017-09-15T08:28:22.487Z,1001.36
2017-09-15T08:29:22.509Z,1001.35
2017-09-15T08:30:22.524Z,1001.31
2017-09-15T08:31:22.544Z,1001.33
2017-09-15T08:32:22.564Z,1001.37
2017-09-15T08:33:22.585Z,1001.39
2017-09-15T08:34:22.600Z,1001.32
2017-09-15T08:35:22.620Z,1001.35
2017-09-15T08:36:22.641Z,1001.31
2017-09-15T08:37:22.660Z,1001.26
2017-09-15T08:38:22.681Z,1001.27
2017-09-15T08:39:22.698Z,1001.2
2017-09-15T08:40:22.718Z,1001.2
2017-09-15T08:41:22.736Z,1001.21
2017-09-15T08:42:22.755Z,1001.2
2017-09-15T08:43:22.774Z,1001.19
2017-09-15T08:44:22.797Z,1001.23
2017-09-15T08:45:22.813Z,1001.27
2017-09-15T08:46:22.836Z,1001.23
2017-09-15T08:47:22.856Z,1001.23
2017-09-15T08:48:22.872Z,1001.17
2017-09-15T08:49:22.890Z,1001.23
2017-09-15T08:50:22.910Z,1001.2
2017-09-15T08:51:22.930Z,1001.23
2017-09-15T08:52:22.949Z,1001.18
2017-09-15T08:53:22.969Z,1001.17
2017-09-15T08:54:22.988Z,1001.16
2017-09-15T08:55:23.007Z,1001.13
2017-09-15T08:56:23.059Z,1001.12
2017-09-15T08:57:23.049Z,1001.12
2017-09-15T08:58:23.066Z,1001.12
2017-09-15T08:59:23.086Z,1001.13
2017-09-15T09:00:23.105Z,1001.13
2017-09-15T09:01:23.124Z,1001.11
2017-09-15T09:02:23.144Z,1001.14
2017-09-15T09:03:23.163Z,1001.15
2017-09-15T09:04:23.183Z,1001.19
2017-09-15T09:05:23.202Z,1001.18
2017-09-15T09:06:23.223Z,1001.22
2017-09-15T09:07:23.242Z,1001.21
2017-09-15T09:08:23.261Z,1001.2
2017-09-15T09:09:23.281Z,1001.25
2017-09-15T09:10:23.313Z,1001.24
2017-09-15T09:11:23.321Z,1001.2
2017-09-15T09:12:23.340Z,1001.23
2017-09-15T09:13:23.360Z,1001.19
2017-09-15T09:14:23.380Z,1001.2
2017-09-15T09:15:23.399Z,1001.2
2017-09-15T09:16:23.419Z,1001.22
2017-09-15T09:17:23.439Z,1001.18
2017-09-15T09:18:23.458Z,1001.21
2017-09-15T09:19:23.512Z,1001.2
2017-09-15T09:20:23.498Z,1001.2
2017-09-15T09:21:23.519Z,1001.2
2017-09-15T09:22:23.539Z,1001.22
2017-09-15T09:23:23.557Z,1001.25
2017-09-15T09:24:23.577Z,1001.21
2017-09-15T09:25:23.600Z,1001.21
2017-09-15T09:26:23.617Z,1001.19
2017-09-15T09:27:23.637Z,1001.21
2017-09-15T09:28:23.657Z,1001.22
2017-09-15T09:29:23.676Z,1001.22
2017-09-15T09:30:23.696Z,1001.19
2017-09-15T09:31:23.716Z,1001.22
2017-09-15T09:32:23.736Z,1001.22
2017-09-15T09:33:23.756Z,1001.24
2017-09-15T09:34:23.777Z,1001.23
2017-09-15T09:35:23.797Z,1001.22
2017-09-15T09:36:23.816Z,1001.25
2017-09-15T09:37:23.837Z,1001.26
2017-09-15T09:38:23.857Z,1001.25
2017-09-15T09:39:23.877Z,1001.21
2017-09-15T09:40:23.896Z,1001.22
2017-09-15T09:41:23.918Z,1001.15
2017-09-15T09:42:23.937Z,1001.16
2017-09-15T09:43:23.956Z,1001.17
2017-09-15T09:44:23.976Z,1001.19
2017-09-15T09:45:24.002Z,1001.2
2017-09-15T09:46:24.018Z,1001.22
2017-09-15T09:47:24.038Z,1001.22
2017-09-15T09:48:24.057Z,1001.18
2017-09-15T09:49:24.077Z,1001.18
2017-09-15T09:50:24.097Z,1001.21
2017-09-15T09:51:24.118Z,1001.2
2017-09-15T09:52:24.187Z,1001.24
2017-09-15T09:53:24.158Z,1001.21
2017-09-15T09:54:24.177Z,1001.26
2017-09-15T09:55:24.198Z,1001.3
2017-09-15T09:56:24.218Z,1001.28
2017-09-15T09:57:24.238Z,1001.29
2017-09-15T09:58:24.258Z,1001.32
2017-09-15T09:59:24.279Z,1001.29
2017-09-15T10:00:24.299Z,1001.31
2017-09-15T10:01:24.320Z,1001.31
2017-09-15T10:02:24.340Z,1001.3
2017-09-15T10:03:24.362Z,1001.3
2017-09-15T10:04:24.388Z,1001.26
2017-09-15T10:05:24.402Z,1001.25
2017-09-15T10:06:24.421Z,1001.23
2017-09-15T10:07:24.442Z,1001.24
2017-09-15T10:08:24.462Z,1001.24
2017-09-15T10:09:24.483Z,1001.18
2017-09-15T10:10:24.503Z,1001.22
2017-09-15T10:11:24.524Z,1001.17
2017-09-15T10:12:24.544Z,1001.18
2017-09-15T10:13:24.564Z,1001.22
2017-09-15T10:14:24.691Z,1001.25
2017-09-15T10:15:24.605Z,1001.25
2017-09-15T10:16:24.625Z,1001.2
2017-09-15T10:17:24.647Z,1001.21
2017-09-15T10:18:24.667Z,1001.24
2017-09-15T10:19:24.920Z,1001.22
2017-09-15T10:20:24.708Z,1001.2
2017-09-15T10:21:24.729Z,1001.23
2017-09-15T10:22:24.750Z,1001.22
2017-09-15T10:23:24.771Z,1001.24
2017-09-15T10:24:24.791Z,1001.22
2017-09-15T10:25:24.812Z,1001.25
2017-09-15T10:26:24.834Z,1001.21
2017-09-15T10:27:24.853Z,1001.23
2017-09-15T10:28:24.876Z,1001.19
2017-09-15T10:29:24.895Z,1001.2
2017-09-15T10:30:24.917Z,1001.19
2017-09-15T10:31:24.936Z,1001.19
2017-09-15T10:32:24.958Z,1001.24
2017-09-15T10:33:24.978Z,1001.19
2017-09-15T10:34:25.000Z,1001.21
2017-09-15T10:35:25.020Z,1001.22
2017-09-15T10:36:25.042Z,1001.21
2017-09-15T10:37:25.063Z,1001.22
2017-09-15T10:38:25.083Z,1001.24
2017-09-15T10:39:25.103Z,1001.24
2017-09-15T10:40:25.125Z,1001.24
2017-09-15T10:41:25.148Z,1001.24
2017-09-15T10:42:25.168Z,1001.23
2017-09-15T10:43:25.189Z,1001.26
2017-09-15T10:44:25.210Z,1001.28
2017-09-15T10:45:25.231Z,1001.31
2017-09-15T10:46:25.252Z,1001.28
2017-09-15T10:47:25.273Z,1001.27
2017-09-15T10:48:25.294Z,1001.29
2017-09-15T10:49:25.314Z,1001.28
2017-09-15T10:50:25.335Z,1001.23
2017-09-15T10:51:25.359Z,1001.2
2017-09-15T10:52:25.378Z,1001.2
2017-09-15T10:53:25.400Z,1001.21
2017-09-15T10:54:25.420Z,1001.22
2017-09-15T10:55:25.441Z,1001.21
2017-09-15T10:56:25.463Z,1001.25
2017-09-15T10:57:25.484Z,1001.23
2017-09-15T10:58:25.505Z,1001.19
2017-09-15T10:59:25.527Z,1001.18
2017-09-15T11:00:25.547Z,1001.17
2017-09-15T11:01:25.573Z,1001.15
2017-09-15T11:02:25.590Z,1001.11
2017-09-15T11:03:25.612Z,1001.08
2017-09-15T11:04:25.632Z,1001.09
2017-09-15T11:05:25.654Z,1001.07
2017-09-15T11:06:25.678Z,1001.08
2017-09-15T11:07:25.697Z,1001.06
2017-09-15T11:08:25.719Z,1001.03
2017-09-15T11:09:25.767Z,1001.04
2017-09-15T11:10:25.762Z,1001.06
2017-09-15T11:11:25.782Z,1001.03
2017-09-15T11:12:25.804Z,1001.01
2017-09-15T11:13:25.826Z,1001.05
2017-09-15T11:14:25.850Z,1000.94
2017-09-15T11:15:25.868Z,1000.97
2017-09-15T11:16:25.891Z,1000.93
2017-09-15T11:17:25.912Z,1000.92
2017-09-15T11:18:25.932Z,1000.86
2017-09-15T11:19:25.956Z,1000.89
2017-09-15T11:20:25.981Z,1000.86
2017-09-15T11:21:25.998Z,1000.87
2017-09-15T11:22:26.019Z,1000.84
2017-09-15T11:23:26.040Z,1000.83
2017-09-15T11:24:26.077Z,1000.87
2017-09-15T11:25:26.084Z,1000.8
2017-09-15T11:26:26.105Z,1000.84
2017-09-15T11:27:26.128Z,1000.84
2017-09-15T11:28:26.149Z,1000.81
2017-09-15T11:29:26.170Z,1000.82
2017-09-15T11:30:26.192Z,1000.82
2017-09-15T11:31:26.214Z,1000.83
2017-09-15T11:32:26.237Z,1000.81
2017-09-15T11:33:26.256Z,1000.81
2017-09-15T11:34:26.278Z,1000.83
2017-09-15T11:35:26.300Z,1000.86
2017-09-15T11:36:26.347Z,1000.84
2017-09-15T11:37:26.342Z,1000.84
2017-09-15T11:38:26.368Z,1000.88
2017-09-15T11:39:26.388Z,1000.8
2017-09-15T11:40:26.407Z,1000.83
2017-09-15T11:41:26.430Z,1000.83
2017-09-15T11:42:26.458Z,1000.79
2017-09-15T11:43:26.474Z,1000.81
2017-09-15T11:44:26.494Z,1000.8
2017-09-15T11:45:26.516Z,1000.72
2017-09-15T11:46:26.538Z,1000.67
2017-09-15T11:47:26.560Z,1000.72
2017-09-15T11:48:26.580Z,1000.69
2017-09-15T11:49:26.602Z,1000.67
2017-09-15T11:50:26.625Z,1000.66
2017-09-15T11:51:26.646Z,1000.62
2017-09-15T11:52:26.668Z,1000.67
2017-09-15T11:53:26.691Z,1000.63
2017-09-15T11:54:26.711Z,1000.66
2017-09-15T11:55:26.732Z,1000.64
2017-09-15T11:56:26.755Z,1000.64
2017-09-15T11:57:26.777Z,1000.59
2017-09-15T11:58:26.799Z,1000.61
2017-09-15T11:59:26.820Z,1000.56
2017-09-15T12:00:26.842Z,1000.58
2017-09-15T12:01:26.866Z,1000.59
2017-09-15T12:02:26.885Z,1000.54
2017-09-15T12:03:26.908Z,1000.55
2017-09-15T12:04:26.929Z,1000.56
2017-09-15T12:05:26.951Z,1000.54
2017-09-15T12:06:26.973Z,1000.48
2017-09-15T12:07:26.995Z,1000.52
2017-09-15T12:08:27.017Z,1000.5
2017-09-15T12:09:27.050Z,1000.52
2017-09-15T12:10:27.061Z,1000.5
2017-09-15T12:11:27.083Z,1000.54
2017-09-15T12:12:27.105Z,1000.55
2017-09-15T12:13:27.127Z,1000.56
2017-09-15T12:14:27.149Z,1000.54
2017-09-15T12:15:27.170Z,1000.57
2017-09-15T12:16:27.221Z,1000.58
2017-09-15T12:17:27.214Z,1000.6
2017-09-15T12:18:27.238Z,1000.54